Meteo Giornale » Osservazioni meteo Stati Uniti (USA) » Barre-Montpelier Knapp State

ore: 10:51 - Osservazioni Meteo Barre-Montpelier Knapp State
Lat. 44° 12' N Lon. 72° 33' W Alt. 355 metri s.l.m.

molto_nuvoloso

19 °C

Molto Nuvoloso

Temp. 24 Ore

12 °C

24 °C

Nord

0 Km/h

Dew point 12 °C

Umidità 63 %

Visibilità  10 Km

Il sole sorge alle ore 06:13

Il sole tramonta alle ore 19:26

Data e Ora Cielo e Fenomeni T °C DP °C Um. % Pres. hPa Vis. km Vento km/h
Oggi h: 10:51 molto_nuvoloso Molto Nuvoloso 19 12 63 1019 10 N 0
Oggi h: 09:51 coperto Coperto 15 12 82 1019 10 N 0
Oggi h: 08:51 coperto Coperto 14 12 87 1020 10 N 0
Oggi h: 07:51 molto_nuvoloso Molto Nuvoloso 13 11 87 1020 10 N 0
Oggi h: 06:51 coperto Coperto 12 11 93 1020 10 NE 7.4
Oggi h: 05:51 coperto Coperto 12 11 93 1019 10 N 0
Oggi h: 04:51 sereno Sereno 12 10 87 1019 10 N 0
Oggi h: 03:51 molto_nuvoloso Molto Nuvoloso 12 10 87 1019 10 N 0
Oggi h: 02:51 molto_nuvoloso Molto Nuvoloso 12 9 81 1020 10 N 0
Oggi h: 01:51 molto_nuvoloso Molto Nuvoloso 12 9 81 1020 10 N 0
Oggi h: 00:51 sereno Sereno 12 9 81 1020 10 N 0
Ieri h: 23:51 sereno Sereno 12 10 87 1020 10 N 0
Ieri h: 22:51 sereno Sereno 13 10 81 1020 10 N 0
Ieri h: 21:51 sereno Sereno 13 10 81 1020 10 N 0
Ieri h: 20:51 sereno Sereno 14 11 82 1020 10 N 0
Ieri h: 19:51 sereno Sereno 16 11 72 1019 10 N 0
Ieri h: 18:51 sereno Sereno 17 12 72 1020 10 N 5.5
Ieri h: 17:51 sereno Sereno 23 8 38 1020 10 N 5.5
Ieri h: 16:51 sereno Sereno 24 8 35 1020 10 NO 11.1
Ieri h: 15:51 poco_nuvoloso Poco Nuvoloso 23 10 43 1020 10 N/NO 16.7
Ieri h: 14:51 poco_nuvoloso Poco Nuvoloso 23 11 46 1020 10 N 0
Ieri h: 13:51 sereno Sereno 23 10 43 1021 10 N 0
Ieri h: 12:51 sereno Sereno 22 10 46 1021 10 NO 7.4
Ieri h: 11:51 sereno Sereno 20 10 52 1022 10 N 0